sensor_id;sensor_type;location;lat;lon;timestamp;temperature;humidity
15789;DHT22;59075;50.670;6.474;2022-09-11T05:00:38;22.80;99.90
15789;DHT22;59075;50.670;6.474;2022-09-11T05:03:05;22.60;99.90
15789;DHT22;59075;50.670;6.474;2022-09-11T05:05:32;22.60;99.90
15789;DHT22;59075;50.670;6.474;2022-09-11T05:22:53;22.60;99.90
15789;DHT22;59075;50.670;6.474;2022-09-11T05:25:19;22.70;99.90
15789;DHT22;59075;50.670;6.474;2022-09-11T05:27:46;22.70;99.90
15789;DHT22;59075;50.670;6.474;2022-09-11T05:30:13;22.70;99.90
15789;DHT22;59075;50.670;6.474;2022-09-11T05:32:39;22.70;99.90
15789;DHT22;59075;50.670;6.474;2022-09-11T05:35:08;22.60;99.90
15789;DHT22;59075;50.670;6.474;2022-09-11T05:37:34;22.70;99.90
15789;DHT22;59075;50.670;6.474;2022-09-11T05:40:01;22.70;99.90
15789;DHT22;59075;50.670;6.474;2022-09-11T05:42:28;22.70;99.90
15789;DHT22;59075;50.670;6.474;2022-09-11T05:44:55;22.70;99.90
15789;DHT22;59075;50.670;6.474;2022-09-11T05:47:21;22.70;99.90
15789;DHT22;59075;50.670;6.474;2022-09-11T05:49:48;22.70;99.90
15789;DHT22;59075;50.670;6.474;2022-09-11T05:52:16;22.70;99.90
15789;DHT22;59075;50.670;6.474;2022-09-11T05:54:43;22.70;99.90
15789;DHT22;59075;50.670;6.474;2022-09-11T05:57:10;22.70;99.90
15789;DHT22;59075;50.670;6.474;2022-09-11T05:59:37;22.70;99.90
15789;DHT22;59075;50.670;6.474;2022-09-11T06:02:03;22.70;99.90
15789;DHT22;59075;50.670;6.474;2022-09-11T06:04:30;22.70;99.90
15789;DHT22;59075;50.670;6.474;2022-09-11T06:09:26;22.70;99.90
15789;DHT22;59075;50.670;6.474;2022-09-11T06:14:20;22.70;99.90
15789;DHT22;59075;50.670;6.474;2022-09-11T06:16:47;22.70;99.90
15789;DHT22;59075;50.670;6.474;2022-09-11T06:19:14;22.70;99.90
15789;DHT22;59075;50.670;6.474;2022-09-11T06:21:41;22.70;99.90
15789;DHT22;59075;50.670;6.474;2022-09-11T06:24:07;22.70;99.90
15789;DHT22;59075;50.670;6.474;2022-09-11T06:26:35;22.70;99.90
15789;DHT22;59075;50.670;6.474;2022-09-11T06:29:02;22.70;99.90
15789;DHT22;59075;50.670;6.474;2022-09-11T06:31:29;22.80;99.90
15789;DHT22;59075;50.670;6.474;2022-09-11T06:33:55;22.80;99.90
15789;DHT22;59075;50.670;6.474;2022-09-11T06:36:24;22.70;99.90
15789;DHT22;59075;50.670;6.474;2022-09-11T06:38:52;22.80;99.90
15789;DHT22;59075;50.670;6.474;2022-09-11T06:41:20;22.80;99.90
15789;DHT22;59075;50.670;6.474;2022-09-11T06:46:17;22.80;99.90
15789;DHT22;59075;50.670;6.474;2022-09-11T06:48:45;22.80;99.90
15789;DHT22;59075;50.670;6.474;2022-09-11T06:51:16;22.80;99.90
15789;DHT22;59075;50.670;6.474;2022-09-11T06:53:44;22.80;99.90
15789;DHT22;59075;50.670;6.474;2022-09-11T06:56:13;22.80;99.90
15789;DHT22;59075;50.670;6.474;2022-09-11T06:58:39;22.80;99.90
15789;DHT22;59075;50.670;6.474;2022-09-11T07:01:10;22.80;99.90
15789;DHT22;59075;50.670;6.474;2022-09-11T07:03:40;22.80;99.90
15789;DHT22;59075;50.670;6.474;2022-09-11T07:06:08;22.80;99.90
15789;DHT22;59075;50.670;6.474;2022-09-11T07:08:34;22.80;99.90
15789;DHT22;59075;50.670;6.474;2022-09-11T07:11:02;22.90;99.90
15789;DHT22;59075;50.670;6.474;2022-09-11T07:13:29;22.90;99.90
15789;DHT22;59075;50.670;6.474;2022-09-11T07:16:00;22.90;99.90
15789;DHT22;59075;50.670;6.474;2022-09-11T07:18:32;22.90;99.90
15789;DHT22;59075;50.670;6.474;2022-09-11T07:21:03;22.90;99.90
15789;DHT22;59075;50.670;6.474;2022-09-11T07:26:01;22.90;99.90
15789;DHT22;59075;50.670;6.474;2022-09-11T07:28:28;22.90;99.90
15789;DHT22;59075;50.670;6.474;2022-09-11T07:31:02;23.00;99.90
15789;DHT22;59075;50.670;6.474;2022-09-11T07:38:24;23.00;99.90
15789;DHT22;59075;50.670;6.474;2022-09-11T07:40:52;23.00;99.90
15789;DHT22;59075;50.670;6.474;2022-09-11T07:43:20;23.00;99.90
15789;DHT22;59075;50.670;6.474;2022-09-11T07:48:14;23.00;99.90
15789;DHT22;59075;50.670;6.474;2022-09-11T07:50:41;23.00;99.90
15789;DHT22;59075;50.670;6.474;2022-09-11T07:53:09;22.90;99.90
15789;DHT22;59075;50.670;6.474;2022-09-11T07:55:37;23.00;99.90
15789;DHT22;59075;50.670;6.474;2022-09-11T08:00:32;22.90;99.90
15789;DHT22;59075;50.670;6.474;2022-09-11T08:05:28;22.90;99.90
15789;DHT22;59075;50.670;6.474;2022-09-11T08:07:54;23.00;99.90
15789;DHT22;59075;50.670;6.474;2022-09-11T08:10:23;23.00;99.90
15789;DHT22;59075;50.670;6.474;2022-09-11T08:12:49;23.00;99.90
15789;DHT22;59075;50.670;6.474;2022-09-11T08:15:17;23.00;99.90
15789;DHT22;59075;50.670;6.474;2022-09-11T08:17:46;23.00;99.90
15789;DHT22;59075;50.670;6.474;2022-09-11T08:20:13;23.00;99.90
15789;DHT22;59075;50.670;6.474;2022-09-11T08:25:07;23.00;99.90
15789;DHT22;59075;50.670;6.474;2022-09-11T08:27:35;22.90;99.90
15789;DHT22;59075;50.670;6.474;2022-09-11T08:30:03;22.90;99.90
15789;DHT22;59075;50.670;6.474;2022-09-11T08:32:30;22.90;99.90
15789;DHT22;59075;50.670;6.474;2022-09-11T08:34:57;23.00;99.90
15789;DHT22;59075;50.670;6.474;2022-09-11T08:37:23;23.00;99.90
15789;DHT22;59075;50.670;6.474;2022-09-11T08:39:50;23.00;99.90
15789;DHT22;59075;50.670;6.474;2022-09-11T08:44:47;23.00;99.90
15789;DHT22;59075;50.670;6.474;2022-09-11T08:47:17;23.00;99.90
15789;DHT22;59075;50.670;6.474;2022-09-11T08:49:52;23.00;99.90
15789;DHT22;59075;50.670;6.474;2022-09-11T08:52:21;23.00;99.90
15789;DHT22;59075;50.670;6.474;2022-09-11T08:57:18;23.00;99.90
15789;DHT22;59075;50.670;6.474;2022-09-11T08:59:59;23.00;99.90
15789;DHT22;59075;50.670;6.474;2022-09-11T09:05:30;23.00;99.90
15789;DHT22;59075;50.670;6.474;2022-09-11T09:08:08;23.00;99.90
15789;DHT22;59075;50.670;6.474;2022-09-11T09:10:46;23.00;99.90
15789;DHT22;59075;50.670;6.474;2022-09-11T09:13:28;23.10;99.90
15789;DHT22;59075;50.670;6.474;2022-09-11T09:16:04;23.00;99.90
15789;DHT22;59075;50.670;6.474;2022-09-11T09:18:36;23.00;99.90
15789;DHT22;59075;50.670;6.474;2022-09-11T09:21:11;23.10;99.90
15789;DHT22;59075;50.670;6.474;2022-09-11T09:26:11;23.00;99.90
15789;DHT22;59075;50.670;6.474;2022-09-11T09:28:45;23.00;99.90
15789;DHT22;59075;50.670;6.474;2022-09-11T09:31:16;23.00;99.90
15789;DHT22;59075;50.670;6.474;2022-09-11T09:33:49;23.10;99.90
15789;DHT22;59075;50.670;6.474;2022-09-11T09:36:20;23.10;99.90
15789;DHT22;59075;50.670;6.474;2022-09-11T09:38:50;23.10;99.90
15789;DHT22;59075;50.670;6.474;2022-09-11T09:41:45;23.10;99.90
15789;DHT22;59075;50.670;6.474;2022-09-11T09:44:23;23.10;99.90
15789;DHT22;59075;50.670;6.474;2022-09-11T09:46:54;23.10;99.90
15789;DHT22;59075;50.670;6.474;2022-09-11T09:49:24;23.10;99.90
15789;DHT22;59075;50.670;6.474;2022-09-11T09:54:23;23.10;99.90
15789;DHT22;59075;50.670;6.474;2022-09-11T09:56:56;23.10;99.90
15789;DHT22;59075;50.670;6.474;2022-09-11T09:59:31;23.20;99.90
15789;DHT22;59075;50.670;6.474;2022-09-11T10:02:00;23.10;99.90
15789;DHT22;59075;50.670;6.474;2022-09-11T10:04:27;23.10;99.90
15789;DHT22;59075;50.670;6.474;2022-09-11T10:07:06;23.10;99.90
15789;DHT22;59075;50.670;6.474;2022-09-11T10:09:35;23.10;99.90
15789;DHT22;59075;50.670;6.474;2022-09-11T10:12:04;23.10;99.90
15789;DHT22;59075;50.670;6.474;2022-09-11T10:14:37;23.20;99.90
15789;DHT22;59075;50.670;6.474;2022-09-11T10:17:19;23.20;99.90
15789;DHT22;59075;50.670;6.474;2022-09-11T10:19:45;23.20;99.90
15789;DHT22;59075;50.670;6.474;2022-09-11T10:22:27;23.20;99.90
15789;DHT22;59075;50.670;6.474;2022-09-11T10:25:03;23.20;99.90
15789;DHT22;59075;50.670;6.474;2022-09-11T10:30:01;23.20;99.90
15789;DHT22;59075;50.670;6.474;2022-09-11T10:32:29;23.20;99.90
15789;DHT22;59075;50.670;6.474;2022-09-11T10:34:56;23.20;99.90
15789;DHT22;59075;50.670;6.474;2022-09-11T10:37:25;23.20;99.90
15789;DHT22;59075;50.670;6.474;2022-09-11T10:40:01;23.20;99.90
15789;DHT22;59075;50.670;6.474;2022-09-11T10:42:31;23.20;99.90
15789;DHT22;59075;50.670;6.474;2022-09-11T10:45:05;23.20;99.90
15789;DHT22;59075;50.670;6.474;2022-09-11T10:47:36;23.20;99.90
15789;DHT22;59075;50.670;6.474;2022-09-11T10:50:26;23.20;99.90
15789;DHT22;59075;50.670;6.474;2022-09-11T10:53:13;23.20;99.90
15789;DHT22;59075;50.670;6.474;2022-09-11T10:55:42;23.20;99.90
15789;DHT22;59075;50.670;6.474;2022-09-11T10:58:13;23.20;99.90
15789;DHT22;59075;50.670;6.474;2022-09-11T11:00:41;23.20;99.90
15789;DHT22;59075;50.670;6.474;2022-09-11T11:03:15;23.20;99.90
15789;DHT22;59075;50.670;6.474;2022-09-11T11:05:48;23.20;99.90
15789;DHT22;59075;50.670;6.474;2022-09-11T11:08:40;23.20;99.90
15789;DHT22;59075;50.670;6.474;2022-09-11T11:11:22;23.20;99.90
15789;DHT22;59075;50.670;6.474;2022-09-11T11:16:56;23.20;99.90
15789;DHT22;59075;50.670;6.474;2022-09-11T11:22:23;23.20;99.90
15789;DHT22;59075;50.670;6.474;2022-09-11T11:25:02;23.20;99.90
15789;DHT22;59075;50.670;6.474;2022-09-11T11:27:58;23.20;99.90
15789;DHT22;59075;50.670;6.474;2022-09-11T11:30:29;23.20;99.90
15789;DHT22;59075;50.670;6.474;2022-09-11T11:33:15;23.20;99.90
15789;DHT22;59075;50.670;6.474;2022-09-11T11:35:56;23.20;99.90
15789;DHT22;59075;50.670;6.474;2022-09-11T11:38:30;23.30;99.90
15789;DHT22;59075;50.670;6.474;2022-09-11T11:41:01;23.30;99.90
15789;DHT22;59075;50.670;6.474;2022-09-11T11:43:32;23.30;99.90
15789;DHT22;59075;50.670;6.474;2022-09-11T11:46:02;23.20;99.90
15789;DHT22;59075;50.670;6.474;2022-09-11T11:48:34;23.20;99.90
15789;DHT22;59075;50.670;6.474;2022-09-11T11:51:07;23.20;99.90
15789;DHT22;59075;50.670;6.474;2022-09-11T11:53:39;23.30;99.90
15789;DHT22;59075;50.670;6.474;2022-09-11T11:56:13;23.30;99.90
15789;DHT22;59075;50.670;6.474;2022-09-11T11:58:48;23.30;99.90
15789;DHT22;59075;50.670;6.474;2022-09-11T12:01:21;23.30;99.90
15789;DHT22;59075;50.670;6.474;2022-09-11T12:03:57;23.20;99.90
15789;DHT22;59075;50.670;6.474;2022-09-11T12:06:28;23.30;99.90
15789;DHT22;59075;50.670;6.474;2022-09-11T12:08:56;23.30;99.90
15789;DHT22;59075;50.670;6.474;2022-09-11T12:11:28;23.30;99.90
15789;DHT22;59075;50.670;6.474;2022-09-11T12:13:56;23.30;99.90
15789;DHT22;59075;50.670;6.474;2022-09-11T12:19:05;23.30;99.90
15789;DHT22;59075;50.670;6.474;2022-09-11T12:21:36;23.30;99.90
15789;DHT22;59075;50.670;6.474;2022-09-11T12:24:17;23.30;99.90
15789;DHT22;59075;50.670;6.474;2022-09-11T12:26:44;23.20;99.90
15789;DHT22;59075;50.670;6.474;2022-09-11T12:29:40;23.30;99.90
15789;DHT22;59075;50.670;6.474;2022-09-11T12:35:15;23.30;99.90
15789;DHT22;59075;50.670;6.474;2022-09-11T12:37:46;23.30;99.90
15789;DHT22;59075;50.670;6.474;2022-09-11T12:40:17;23.30;99.90
15789;DHT22;59075;50.670;6.474;2022-09-11T12:42:56;23.30;99.90
15789;DHT22;59075;50.670;6.474;2022-09-11T12:45:34;23.30;99.90
15789;DHT22;59075;50.670;6.474;2022-09-11T12:48:06;23.30;99.90
15789;DHT22;59075;50.670;6.474;2022-09-11T12:50:34;23.30;99.90
15789;DHT22;59075;50.670;6.474;2022-09-11T12:53:03;23.30;99.90
15789;DHT22;59075;50.670;6.474;2022-09-11T12:55:35;23.30;99.90
15789;DHT22;59075;50.670;6.474;2022-09-11T12:58:06;23.30;99.90
15789;DHT22;59075;50.670;6.474;2022-09-11T13:00:36;23.30;99.90
15789;DHT22;59075;50.670;6.474;2022-09-11T13:03:05;23.30;99.90
15789;DHT22;59075;50.670;6.474;2022-09-11T13:05:35;23.30;99.90
15789;DHT22;59075;50.670;6.474;2022-09-11T13:08:07;23.30;99.90
15789;DHT22;59075;50.670;6.474;2022-09-11T13:10:40;23.30;99.90
15789;DHT22;59075;50.670;6.474;2022-09-11T13:13:38;23.30;99.90
15789;DHT22;59075;50.670;6.474;2022-09-11T13:16:17;23.30;99.90
15789;DHT22;59075;50.670;6.474;2022-09-11T13:18:47;23.30;99.90
15789;DHT22;59075;50.670;6.474;2022-09-11T13:21:16;23.30;99.90
15789;DHT22;59075;50.670;6.474;2022-09-11T13:23:44;24.10;99.90
15789;DHT22;59075;50.670;6.474;2022-09-11T13:26:23;23.40;99.90
15789;DHT22;59075;50.670;6.474;2022-09-11T13:28:52;23.40;99.90
15789;DHT22;59075;50.670;6.474;2022-09-11T13:31:28;23.40;99.90
15789;DHT22;59075;50.670;6.474;2022-09-11T13:33:56;23.40;99.90
15789;DHT22;59075;50.670;6.474;2022-09-11T13:36:24;23.40;99.90
15789;DHT22;59075;50.670;6.474;2022-09-11T13:38:55;23.40;99.90
15789;DHT22;59075;50.670;6.474;2022-09-11T13:41:27;23.40;99.90
15789;DHT22;59075;50.670;6.474;2022-09-11T13:43:57;23.40;99.90
15789;DHT22;59075;50.670;6.474;2022-09-11T13:46:25;23.50;99.90
15789;DHT22;59075;50.670;6.474;2022-09-11T13:48:56;23.50;99.90
15789;DHT22;59075;50.670;6.474;2022-09-11T13:51:26;23.50;99.90
15789;DHT22;59075;50.670;6.474;2022-09-11T13:54:01;23.50;99.90
15789;DHT22;59075;50.670;6.474;2022-09-11T13:56:42;23.50;99.90
15789;DHT22;59075;50.670;6.474;2022-09-11T13:59:34;23.50;99.90
15789;DHT22;59075;50.670;6.474;2022-09-11T14:02:04;23.50;99.90
15789;DHT22;59075;50.670;6.474;2022-09-11T14:04:38;23.50;99.90
15789;DHT22;59075;50.670;6.474;2022-09-11T14:07:14;23.50;99.90
15789;DHT22;59075;50.670;6.474;2022-09-11T14:09:46;23.50;99.90
15789;DHT22;59075;50.670;6.474;2022-09-11T14:12:14;23.50;99.90
15789;DHT22;59075;50.670;6.474;2022-09-11T14:14:41;23.50;99.90
15789;DHT22;59075;50.670;6.474;2022-09-11T14:17:12;23.50;99.90
15789;DHT22;59075;50.670;6.474;2022-09-11T14:19:41;23.50;99.90
15789;DHT22;59075;50.670;6.474;2022-09-11T14:22:13;23.50;99.90
15789;DHT22;59075;50.670;6.474;2022-09-11T14:24:52;23.50;99.90
15789;DHT22;59075;50.670;6.474;2022-09-11T14:27:34;23.50;99.90
15789;DHT22;59075;50.670;6.474;2022-09-11T14:30:25;23.50;99.90
15789;DHT22;59075;50.670;6.474;2022-09-11T14:33:15;23.50;99.90
15789;DHT22;59075;50.670;6.474;2022-09-11T14:35:45;23.50;99.90
15789;DHT22;59075;50.670;6.474;2022-09-11T14:38:13;23.50;99.90
15789;DHT22;59075;50.670;6.474;2022-09-11T14:40:47;23.50;99.90
15789;DHT22;59075;50.670;6.474;2022-09-11T14:43:16;23.50;99.90
15789;DHT22;59075;50.670;6.474;2022-09-11T14:45:45;23.60;99.90
15789;DHT22;59075;50.670;6.474;2022-09-11T14:48:14;23.50;99.90
15789;DHT22;59075;50.670;6.474;2022-09-11T14:50:41;23.50;99.90
15789;DHT22;59075;50.670;6.474;2022-09-11T14:53:15;23.60;99.90
15789;DHT22;59075;50.670;6.474;2022-09-11T14:55:44;23.60;99.90
15789;DHT22;59075;50.670;6.474;2022-09-11T14:58:11;23.60;99.90
15789;DHT22;59075;50.670;6.474;2022-09-11T15:00:37;23.50;99.90
15789;DHT22;59075;50.670;6.474;2022-09-11T15:05:32;23.60;99.90
15789;DHT22;59075;50.670;6.474;2022-09-11T15:07:59;23.60;99.90
15789;DHT22;59075;50.670;6.474;2022-09-11T15:10:25;23.60;99.90
15789;DHT22;59075;50.670;6.474;2022-09-11T15:12:54;23.60;99.90
15789;DHT22;59075;50.670;6.474;2022-09-11T15:15:23;23.60;99.90
15789;DHT22;59075;50.670;6.474;2022-09-11T15:17:49;23.60;99.90
15789;DHT22;59075;50.670;6.474;2022-09-11T15:20:16;23.60;99.90
15789;DHT22;59075;50.670;6.474;2022-09-11T15:22:43;23.60;99.90
15789;DHT22;59075;50.670;6.474;2022-09-11T15:25:10;23.60;99.90
15789;DHT22;59075;50.670;6.474;2022-09-11T15:30:06;23.60;99.90
15789;DHT22;59075;50.670;6.474;2022-09-11T15:32:33;23.70;99.90
15789;DHT22;59075;50.670;6.474;2022-09-11T15:35:00;23.60;99.90
15789;DHT22;59075;50.670;6.474;2022-09-11T15:37:27;23.70;99.90
15789;DHT22;59075;50.670;6.474;2022-09-11T15:42:21;23.70;99.90
15789;DHT22;59075;50.670;6.474;2022-09-11T15:44:48;23.70;99.90
15789;DHT22;59075;50.670;6.474;2022-09-11T15:47:16;23.60;99.90
15789;DHT22;59075;50.670;6.474;2022-09-11T15:49:43;23.70;99.90
15789;DHT22;59075;50.670;6.474;2022-09-11T15:52:12;23.70;99.90
15789;DHT22;59075;50.670;6.474;2022-09-11T15:54:39;23.70;99.90
15789;DHT22;59075;50.670;6.474;2022-09-11T15:57:07;23.60;99.90
15789;DHT22;59075;50.670;6.474;2022-09-11T15:59:33;23.60;99.90
15789;DHT22;59075;50.670;6.474;2022-09-11T16:02:00;23.60;99.90
15789;DHT22;59075;50.670;6.474;2022-09-11T16:04:28;23.70;99.90
15789;DHT22;59075;50.670;6.474;2022-09-11T16:06:56;23.70;99.90
15789;DHT22;59075;50.670;6.474;2022-09-11T16:09:24;23.70;99.90
15789;DHT22;59075;50.670;6.474;2022-09-11T16:14:20;23.70;99.90
15789;DHT22;59075;50.670;6.474;2022-09-11T16:16:48;23.60;99.90
15789;DHT22;59075;50.670;6.474;2022-09-11T16:21:44;23.60;99.90
15789;DHT22;59075;50.670;6.474;2022-09-11T16:24:11;23.60;99.90
15789;DHT22;59075;50.670;6.474;2022-09-11T16:26:40;23.60;99.90
15789;DHT22;59075;50.670;6.474;2022-09-11T16:29:08;23.60;99.90
15789;DHT22;59075;50.670;6.474;2022-09-11T16:34:06;23.60;99.90
15789;DHT22;59075;50.670;6.474;2022-09-11T16:36:34;23.60;99.90
15789;DHT22;59075;50.670;6.474;2022-09-11T16:39:04;23.60;99.90
15789;DHT22;59075;50.670;6.474;2022-09-11T16:41:33;23.60;99.90
15789;DHT22;59075;50.670;6.474;2022-09-11T16:44:02;23.60;99.90
15789;DHT22;59075;50.670;6.474;2022-09-11T16:46:29;23.60;99.90
15789;DHT22;59075;50.670;6.474;2022-09-11T16:48:58;23.60;99.90
15789;DHT22;59075;50.670;6.474;2022-09-11T16:51:25;23.60;99.90
15789;DHT22;59075;50.670;6.474;2022-09-11T16:53:52;23.60;99.90
15789;DHT22;59075;50.670;6.474;2022-09-11T16:56:22;23.60;99.90
15789;DHT22;59075;50.670;6.474;2022-09-11T16:58:50;23.60;99.90
15789;DHT22;59075;50.670;6.474;2022-09-11T17:01:19;23.60;99.90
15789;DHT22;59075;50.670;6.474;2022-09-11T17:03:48;23.60;99.90
15789;DHT22;59075;50.670;6.474;2022-09-11T17:06:15;23.60;99.90
15789;DHT22;59075;50.670;6.474;2022-09-11T17:08:45;23.60;99.90
15789;DHT22;59075;50.670;6.474;2022-09-11T17:11:13;23.60;99.90
15789;DHT22;59075;50.670;6.474;2022-09-11T17:13:42;23.50;99.90
15789;DHT22;59075;50.670;6.474;2022-09-11T17:16:11;23.60;99.90
15789;DHT22;59075;50.670;6.474;2022-09-11T17:18:38;23.50;99.90
15789;DHT22;59075;50.670;6.474;2022-09-11T17:21:07;23.50;99.90
15789;DHT22;59075;50.670;6.474;2022-09-11T17:23:36;23.60;99.90
15789;DHT22;59075;50.670;6.474;2022-09-11T17:28:32;23.60;99.90
15789;DHT22;59075;50.670;6.474;2022-09-11T17:31:01;23.50;99.90
15789;DHT22;59075;50.670;6.474;2022-09-11T17:33:28;23.50;99.90
15789;DHT22;59075;50.670;6.474;2022-09-11T17:35:56;23.50;99.90
15789;DHT22;59075;50.670;6.474;2022-09-11T17:38:23;23.50;99.90
15789;DHT22;59075;50.670;6.474;2022-09-11T17:40:54;23.50;99.90
15789;DHT22;59075;50.670;6.474;2022-09-11T17:43:21;23.50;99.90
15789;DHT22;59075;50.670;6.474;2022-09-11T17:45:48;23.50;99.90
15789;DHT22;59075;50.670;6.474;2022-09-11T17:50:44;23.50;99.90
15789;DHT22;59075;50.670;6.474;2022-09-11T17:55:38;23.50;99.90
15789;DHT22;59075;50.670;6.474;2022-09-11T17:58:06;23.50;99.90
15789;DHT22;59075;50.670;6.474;2022-09-11T18:00:33;23.50;99.90
15789;DHT22;59075;50.670;6.474;2022-09-11T18:05:28;23.50;99.90
15789;DHT22;59075;50.670;6.474;2022-09-11T18:07:55;23.40;99.90
15789;DHT22;59075;50.670;6.474;2022-09-11T18:10:25;23.50;99.90
15789;DHT22;59075;50.670;6.474;2022-09-11T18:12:51;23.40;99.90
15789;DHT22;59075;50.670;6.474;2022-09-11T18:15:18;23.40;99.90
15789;DHT22;59075;50.670;6.474;2022-09-11T18:17:45;23.40;99.90
15789;DHT22;59075;50.670;6.474;2022-09-11T18:20:12;23.40;99.90
15789;DHT22;59075;50.670;6.474;2022-09-11T18:22:43;23.40;99.90
15789;DHT22;59075;50.670;6.474;2022-09-11T18:25:09;23.40;99.90
15789;DHT22;59075;50.670;6.474;2022-09-11T18:27:36;23.40;99.90
15789;DHT22;59075;50.670;6.474;2022-09-11T18:30:05;23.40;99.90
15789;DHT22;59075;50.670;6.474;2022-09-11T18:32:32;23.40;99.90
15789;DHT22;59075;50.670;6.474;2022-09-11T18:34:59;23.40;99.90
15789;DHT22;59075;50.670;6.474;2022-09-11T18:39:57;23.40;99.90
15789;DHT22;59075;50.670;6.474;2022-09-11T18:42:25;23.40;99.90
15789;DHT22;59075;50.670;6.474;2022-09-11T18:44:51;23.40;99.90
15789;DHT22;59075;50.670;6.474;2022-09-11T18:47:18;23.40;99.90
15789;DHT22;59075;50.670;6.474;2022-09-11T18:49:46;23.40;99.90
15789;DHT22;59075;50.670;6.474;2022-09-11T18:52:15;23.40;99.90
15789;DHT22;59075;50.670;6.474;2022-09-11T18:54:42;23.40;99.90
15789;DHT22;59075;50.670;6.474;2022-09-11T18:57:10;23.40;99.90
15789;DHT22;59075;50.670;6.474;2022-09-11T18:59:37;23.40;99.90
15789;DHT22;59075;50.670;6.474;2022-09-11T19:02:04;23.40;99.90
15789;DHT22;59075;50.670;6.474;2022-09-11T19:04:31;23.40;99.90
15789;DHT22;59075;50.670;6.474;2022-09-11T19:06:58;23.40;99.90
15789;DHT22;59075;50.670;6.474;2022-09-11T19:09:25;23.40;99.90
15789;DHT22;59075;50.670;6.474;2022-09-11T19:11:53;23.40;99.90
15789;DHT22;59075;50.670;6.474;2022-09-11T19:14:21;23.40;99.90
15789;DHT22;59075;50.670;6.474;2022-09-11T19:16:48;23.40;99.90
15789;DHT22;59075;50.670;6.474;2022-09-11T19:19:16;23.40;99.90
15789;DHT22;59075;50.670;6.474;2022-09-11T19:24:10;23.40;99.90
15789;DHT22;59075;50.670;6.474;2022-09-11T19:26:39;23.40;99.90
15789;DHT22;59075;50.670;6.474;2022-09-11T19:31:36;23.40;99.90
15789;DHT22;59075;50.670;6.474;2022-09-11T19:34:04;23.40;99.90
15789;DHT22;59075;50.670;6.474;2022-09-11T19:36:33;23.30;99.90
15789;DHT22;59075;50.670;6.474;2022-09-11T19:39:00;23.30;99.90
15789;DHT22;59075;50.670;6.474;2022-09-11T19:41:29;23.30;99.90
15789;DHT22;59075;50.670;6.474;2022-09-11T19:43:57;23.30;99.90
15789;DHT22;59075;50.670;6.474;2022-09-11T19:46:25;23.30;99.90
15789;DHT22;59075;50.670;6.474;2022-09-11T19:48:54;23.30;99.90
15789;DHT22;59075;50.670;6.474;2022-09-11T19:51:23;23.30;99.90
15789;DHT22;59075;50.670;6.474;2022-09-11T19:56:22;23.30;99.90
15789;DHT22;59075;50.670;6.474;2022-09-11T19:58:49;23.30;99.90
15789;DHT22;59075;50.670;6.474;2022-09-11T20:01:17;23.20;99.90
15789;DHT22;59075;50.670;6.474;2022-09-11T20:06:16;23.30;99.90
15789;DHT22;59075;50.670;6.474;2022-09-11T20:08:45;23.20;99.90
15789;DHT22;59075;50.670;6.474;2022-09-11T20:11:15;23.30;99.90
15789;DHT22;59075;50.670;6.474;2022-09-11T20:13:42;23.30;99.90
15789;DHT22;59075;50.670;6.474;2022-09-11T20:16:10;23.30;99.90
15789;DHT22;59075;50.670;6.474;2022-09-11T20:18:37;23.30;99.90
15789;DHT22;59075;50.670;6.474;2022-09-11T20:21:05;23.30;99.90
15789;DHT22;59075;50.670;6.474;2022-09-11T20:23:33;23.20;99.90
15789;DHT22;59075;50.670;6.474;2022-09-11T20:26:07;23.20;99.90
15789;DHT22;59075;50.670;6.474;2022-09-11T20:28:34;23.20;99.90
15789;DHT22;59075;50.670;6.474;2022-09-11T20:31:00;23.20;99.90
15789;DHT22;59075;50.670;6.474;2022-09-11T20:33:27;23.20;99.90
15789;DHT22;59075;50.670;6.474;2022-09-11T20:35:54;23.20;99.90
15789;DHT22;59075;50.670;6.474;2022-09-11T20:38:21;23.20;99.90
15789;DHT22;59075;50.670;6.474;2022-09-11T20:40:49;23.20;99.90
15789;DHT22;59075;50.670;6.474;2022-09-11T20:43:16;23.20;99.90
15789;DHT22;59075;50.670;6.474;2022-09-11T20:45:43;23.10;99.90
15789;DHT22;59075;50.670;6.474;2022-09-11T20:48:09;23.20;99.90
15789;DHT22;59075;50.670;6.474;2022-09-11T20:50:36;23.20;99.90
15789;DHT22;59075;50.670;6.474;2022-09-11T20:53:02;23.20;99.90
15789;DHT22;59075;50.670;6.474;2022-09-11T20:55:29;23.20;99.90
15789;DHT22;59075;50.670;6.474;2022-09-11T20:57:57;23.20;99.90
